Time;durP1;ratioP1;P1;durP2;ratioP2;P2;SDS_P1;SDS_P2;PMS_P1;PMS_P2;Temp;Humidity;BMP_temperature;BMP_pressure;BME280_temperature;BME280_humidity;BME280_pressure;Samples;Min_cycle;Max_cycle;Signal;HPM_P1;HPM_P2
2021/09/12 00:00:32;;;;;;;;;50.00;42.25;23.70;38.40;;;;;;4827676;29;9455;-62
2021/09/12 00:02:58;;;;;;;;;52.00;44.25;23.70;38.20;;;;;;4833335;29;8817;-62
2021/09/12 00:05:24;;;;;;;;;51.00;43.75;23.80;38.30;;;;;;4834194;29;8820;-62
2021/09/12 00:07:50;;;;;;;;;50.00;42.75;23.70;38.40;;;;;;4827244;29;8810;-62
2021/09/12 00:10:16;;;;;;;;;49.75;42.25;23.80;38.30;;;;;;4833211;29;8842;-62
2021/09/12 00:12:42;;;;;;;;;51.00;43.00;23.80;38.00;;;;;;4832881;29;8836;-62
2021/09/12 00:15:11;;;;;;;;;50.00;43.50;23.80;38.20;;;;;;4833090;29;8877;-62
2021/09/12 00:17:36;;;;;;;;;49.50;43.25;23.70;38.20;;;;;;4837444;29;8933;-62
2021/09/12 00:20:05;;;;;;;;;49.50;42.75;23.70;38.30;;;;;;4829828;29;8835;-62
2021/09/12 00:22:30;;;;;;;;;49.75;41.75;23.60;38.40;;;;;;4838484;29;8917;-62
2021/09/12 00:24:56;;;;;;;;;46.50;39.75;23.60;38.60;;;;;;4834631;29;8949;-62
2021/09/12 00:27:22;;;;;;;;;49.25;41.75;23.60;38.70;;;;;;4835523;29;8835;-62
2021/09/12 00:29:48;;;;;;;;;48.25;42.25;23.60;39.70;;;;;;4835242;29;8881;-62
2021/09/12 00:32:14;;;;;;;;;47.50;41.50;23.60;38.40;;;;;;4834131;29;8812;-62
2021/09/12 00:34:40;;;;;;;;;49.50;42.75;23.60;38.80;;;;;;4832765;29;8827;-62
2021/09/12 00:37:05;;;;;;;;;49.50;42.75;23.60;38.70;;;;;;4838710;29;8908;-62
2021/09/12 00:39:31;;;;;;;;;48.75;41.50;23.60;38.90;;;;;;4836913;29;8828;-62
2021/09/12 00:41:57;;;;;;;;;50.75;43.75;23.50;39.20;;;;;;4832090;29;8816;-62
2021/09/12 00:44:24;;;;;;;;;51.75;44.00;23.50;39.50;;;;;;4836353;29;8838;-62
2021/09/12 00:46:52;;;;;;;;;51.75;44.50;23.50;39.50;;;;;;4830884;29;8890;-62
2021/09/12 00:49:18;;;;;;;;;52.75;45.50;23.50;39.40;;;;;;4835453;29;8831;-62
2021/09/12 00:51:44;;;;;;;;;50.25;43.00;23.50;39.50;;;;;;4835618;29;8799;-61
2021/09/12 00:54:11;;;;;;;;;52.75;45.00;23.50;39.50;;;;;;4836530;29;9399;-61
2021/09/12 00:56:39;;;;;;;;;51.00;43.00;23.60;39.60;;;;;;4832175;29;8811;-61
2021/09/12 00:59:11;;;;;;;;;50.75;43.00;23.60;39.50;;;;;;4838405;29;8883;-61
2021/09/12 01:01:40;;;;;;;;;54.75;46.00;23.60;39.80;;;;;;4833527;29;8816;-61
2021/09/12 01:04:06;;;;;;;;;52.00;45.00;23.60;39.60;;;;;;4836016;29;8808;-60
2021/09/12 01:06:32;;;;;;;;;54.00;46.00;23.50;39.60;;;;;;4842028;29;9454;-61
2021/09/12 01:09:02;;;;;;;;;52.25;45.00;23.50;39.80;;;;;;4829633;29;8839;-61
2021/09/12 01:11:28;;;;;;;;;48.75;42.25;23.50;40.20;;;;;;4838016;29;8859;-61
2021/09/12 01:13:54;;;;;;;;;50.75;43.50;23.50;40.00;;;;;;4844914;29;8867;-61
2021/09/12 01:16:21;;;;;;;;;51.50;43.50;23.50;40.10;;;;;;4846001;29;8788;-61
2021/09/12 01:18:47;;;;;;;;;53.25;46.00;23.50;40.10;;;;;;4845957;29;8906;-61
2021/09/12 01:21:19;;;;;;;;;52.50;45.00;23.50;39.90;;;;;;4827790;29;8811;-61
2021/09/12 01:23:46;;;;;;;;;46.75;40.00;23.50;39.90;;;;;;4827319;29;8807;-61
2021/09/12 01:26:12;;;;;;;;;53.50;46.25;23.50;39.80;;;;;;4827763;29;9481;-61
2021/09/12 01:28:39;;;;;;;;;54.00;46.75;23.50;39.90;;;;;;4827367;29;8827;-60
2021/09/12 01:31:05;;;;;;;;;49.25;41.75;23.50;39.90;;;;;;4827327;29;8945;-61
2021/09/12 01:33:31;;;;;;;;;54.00;46.25;23.40;39.80;;;;;;4826336;29;8906;-61
2021/09/12 01:35:56;;;;;;;;;53.25;45.75;23.40;39.80;;;;;;4827375;29;8787;-61
2021/09/12 01:38:22;;;;;;;;;50.00;42.75;23.40;39.70;;;;;;4827492;29;9552;-60
2021/09/12 01:40:48;;;;;;;;;49.75;43.00;23.30;39.50;;;;;;4827215;29;8835;-61
2021/09/12 01:43:14;;;;;;;;;47.50;41.25;23.30;39.70;;;;;;4827414;29;8846;-61
2021/09/12 01:45:40;;;;;;;;;51.00;44.25;23.30;39.60;;;;;;4827501;29;8811;-61
2021/09/12 01:48:06;;;;;;;;;50.50;43.75;23.30;39.50;;;;;;4827203;29;8799;-61
2021/09/12 01:50:32;;;;;;;;;48.75;42.25;23.30;39.70;;;;;;4827235;29;9474;-61
2021/09/12 01:52:58;;;;;;;;;50.50;43.75;23.30;39.60;;;;;;4827089;29;8819;-61
2021/09/12 01:55:24;;;;;;;;;48.00;41.50;23.30;39.90;;;;;;4827253;29;8887;-62
2021/09/12 01:57:50;;;;;;;;;53.00;46.00;23.20;39.70;;;;;;4827240;29;9576;-61
2021/09/12 02:00:16;;;;;;;;;54.00;46.25;23.10;39.70;;;;;;4827240;29;8791;-61
2021/09/12 02:02:41;;;;;;;;;51.75;44.50;23.10;40.20;;;;;;4826979;29;8885;-61
2021/09/12 02:05:08;;;;;;;;;52.25;45.25;23.00;40.60;;;;;;4826863;29;9512;-61
2021/09/12 02:07:33;;;;;;;;;52.50;45.25;22.80;40.70;;;;;;4827046;29;9506;-61
2021/09/12 02:09:59;;;;;;;;;54.00;46.00;22.90;40.80;;;;;;4826705;29;8839;-61
2021/09/12 02:12:25;;;;;;;;;52.25;45.00;22.70;41.10;;;;;;4826900;29;8986;-62
2021/09/12 02:14:51;;;;;;;;;57.25;48.50;22.70;41.30;;;;;;4826517;29;8850;-61
2021/09/12 02:17:17;;;;;;;;;55.25;46.75;22.70;41.10;;;;;;4826925;29;8825;-61
2021/09/12 02:19:43;;;;;;;;;52.75;45.50;22.70;41.10;;;;;;4826691;29;8818;-61
2021/09/12 02:22:09;;;;;;;;;51.25;44.00;22.60;41.30;;;;;;4827140;29;8795;-61
2021/09/12 02:24:35;;;;;;;;;56.50;48.25;22.60;41.50;;;;;;4828012;29;8830;-62
2021/09/12 02:27:01;;;;;;;;;51.50;44.25;22.70;41.40;;;;;;4826603;29;8803;-62
2021/09/12 02:29:27;;;;;;;;;53.50;45.75;22.70;41.30;;;;;;4826864;29;8802;-61
2021/09/12 02:31:53;;;;;;;;;51.75;44.00;22.60;40.90;;;;;;4835858;29;8910;-61
2021/09/12 02:34:19;;;;;;;;;48.75;42.50;22.70;40.80;;;;;;4843976;29;8927;-61
2021/09/12 02:36:45;;;;;;;;;52.25;45.00;22.50;40.90;;;;;;4844586;29;8796;-61
2021/09/12 02:39:11;;;;;;;;;54.50;46.50;22.60;40.70;;;;;;4844821;29;8903;-61
2021/09/12 02:41:37;;;;;;;;;49.75;42.75;22.40;40.60;;;;;;4842540;29;8803;-61
2021/09/12 02:44:04;;;;;;;;;52.75;45.00;22.30;40.90;;;;;;4826549;29;9470;-61
2021/09/12 02:46:31;;;;;;;;;53.75;45.75;22.30;41.10;;;;;;4826265;29;8894;-61
2021/09/12 02:48:57;;;;;;;;;56.25;47.25;22.30;41.20;;;;;;4827208;29;8807;-61
2021/09/12 02:51:23;;;;;;;;;54.25;46.25;22.20;41.10;;;;;;4833554;29;8846;-62
2021/09/12 02:53:49;;;;;;;;;47.50;40.50;22.10;41.30;;;;;;4826104;29;8803;-61
2021/09/12 02:56:15;;;;;;;;;51.75;44.00;22.10;41.50;;;;;;4826101;29;8810;-61
2021/09/12 02:58:40;;;;;;;;;54.00;46.25;21.90;41.60;;;;;;4840641;29;8812;-61
2021/09/12 03:01:06;;;;;;;;;53.25;44.75;21.90;41.70;;;;;;4844186;29;8804;-61
2021/09/12 03:03:32;;;;;;;;;48.50;42.25;22.00;41.70;;;;;;4844091;29;8800;-61
2021/09/12 03:05:58;;;;;;;;;53.25;45.50;21.80;41.80;;;;;;4840167;29;8839;-61
2021/09/12 03:08:24;;;;;;;;;46.50;40.25;21.90;42.10;;;;;;4826703;29;8818;-61
2021/09/12 03:10:50;;;;;;;;;52.00;43.75;21.90;41.90;;;;;;4826052;29;9558;-61
2021/09/12 03:13:15;;;;;;;;;55.00;47.00;21.90;41.90;;;;;;4825907;29;9466;-62
2021/09/12 03:15:41;;;;;;;;;54.00;45.75;21.70;41.90;;;;;;4825752;29;8921;-61
2021/09/12 03:18:07;;;;;;;;;51.75;44.75;21.70;42.40;;;;;;4825843;29;8815;-62
2021/09/12 03:20:33;;;;;;;;;49.00;42.00;21.70;42.30;;;;;;4825996;29;8825;-61
2021/09/12 03:22:59;;;;;;;;;49.75;42.75;21.70;42.10;;;;;;4825940;29;8791;-61
2021/09/12 03:25:25;;;;;;;;;54.00;46.25;21.60;42.10;;;;;;4825906;29;8927;-61
2021/09/12 03:27:53;;;;;;;;;50.00;42.75;21.60;42.60;;;;;;4825938;29;9407;-61
2021/09/12 03:30:20;;;;;;;;;53.00;44.75;21.50;42.50;;;;;;4825621;29;8850;-61
2021/09/12 03:32:46;;;;;;;;;43.75;38.75;21.60;42.60;;;;;;4825608;29;8812;-62
2021/09/12 03:35:12;;;;;;;;;52.25;44.75;21.70;42.40;;;;;;4825553;29;8790;-61
2021/09/12 03:37:38;;;;;;;;;46.25;40.50;21.60;42.40;;;;;;4825577;29;8839;-61
2021/09/12 03:40:05;;;;;;;;;50.75;43.00;21.60;42.60;;;;;;4825563;29;8791;-61
2021/09/12 03:42:31;;;;;;;;;52.75;44.75;21.70;42.50;;;;;;4824376;29;8940;-62
2021/09/12 03:44:57;;;;;;;;;53.50;45.75;21.70;42.40;;;;;;4825471;29;8917;-61
2021/09/12 03:47:23;;;;;;;;;51.25;43.50;21.70;42.30;;;;;;4825618;29;8807;-61
2021/09/12 03:49:49;;;;;;;;;53.25;45.50;21.70;42.40;;;;;;4825401;29;8838;-62
2021/09/12 03:52:15;;;;;;;;;52.25;44.25;21.70;42.20;;;;;;4825434;29;8845;-61
2021/09/12 03:54:41;;;;;;;;;50.25;43.25;21.70;42.40;;;;;;4825355;29;8802;-61
2021/09/12 03:57:06;;;;;;;;;46.75;40.75;21.70;42.40;;;;;;4825310;29;8799;-61
2021/09/12 03:59:32;;;;;;;;;54.25;46.75;21.60;42.20;;;;;;4825305;29;8810;-61
2021/09/12 04:01:58;;;;;;;;;50.25;43.00;21.70;42.10;;;;;;4825210;29;8819;-61
2021/09/12 04:04:24;;;;;;;;;46.50;40.25;21.60;42.10;;;;;;4825258;29;8899;-61
2021/09/12 04:06:49;;;;;;;;;52.75;45.00;21.50;42.30;;;;;;4825264;29;8881;-61
2021/09/12 04:09:15;;;;;;;;;53.00;45.25;21.40;42.80;;;;;;4825392;29;8814;-61
2021/09/12 04:11:41;;;;;;;;;48.75;42.00;21.50;42.70;;;;;;4825315;29;8839;-61
2021/09/12 04:14:07;;;;;;;;;52.25;45.00;21.60;42.50;;;;;;4825169;29;9006;-61
2021/09/12 04:16:33;;;;;;;;;51.25;43.25;21.60;42.30;;;;;;4825097;29;8971;-61
2021/09/12 04:18:59;;;;;;;;;48.75;41.75;21.60;42.30;;;;;;4825038;29;8810;-61
2021/09/12 04:21:24;;;;;;;;;53.25;46.00;21.40;43.50;;;;;;4825259;29;8890;-61
2021/09/12 04:23:50;;;;;;;;;50.75;43.50;21.40;42.60;;;;;;4825278;29;8817;-61
2021/09/12 04:26:16;;;;;;;;;51.75;44.25;21.40;42.50;;;;;;4825326;29;8807;-61
2021/09/12 04:28:42;;;;;;;;;51.25;43.75;21.50;42.70;;;;;;4825297;29;8833;-61
2021/09/12 04:31:07;;;;;;;;;51.00;44.00;21.60;42.50;;;;;;4825177;29;8866;-61
2021/09/12 04:33:33;;;;;;;;;53.50;45.75;21.50;42.60;;;;;;4825220;29;8811;-61
2021/09/12 04:35:59;;;;;;;;;54.75;47.00;21.40;43.60;;;;;;4825233;29;8813;-61
2021/09/12 04:38:25;;;;;;;;;52.00;44.50;21.40;42.90;;;;;;4825131;29;8837;-62
2021/09/12 04:40:50;;;;;;;;;54.00;46.00;21.50;42.80;;;;;;4835413;29;8920;-61
2021/09/12 04:43:16;;;;;;;;;52.25;44.50;21.70;42.60;;;;;;4824932;29;8835;-61
2021/09/12 04:45:42;;;;;;;;;55.25;47.00;21.70;42.40;;;;;;4824787;29;8803;-61
2021/09/12 04:48:08;;;;;;;;;54.50;46.75;21.80;42.40;;;;;;4824764;29;8833;-62
2021/09/12 04:50:34;;;;;;;;;54.50;46.75;21.80;42.30;;;;;;4834853;29;8839;-62
2021/09/12 04:53:00;;;;;;;;;53.25;45.25;21.90;42.20;;;;;;4825550;29;8817;-62
2021/09/12 04:55:26;;;;;;;;;53.00;45.50;21.90;42.10;;;;;;4842967;29;8808;-62
2021/09/12 04:57:52;;;;;;;;;53.00;45.00;21.90;42.00;;;;;;4843751;29;8968;-61
2021/09/12 05:00:18;;;;;;;;;53.75;46.25;22.00;43.10;;;;;;4846258;29;8832;-61
2021/09/12 05:02:43;;;;;;;;;55.50;47.75;21.90;42.10;;;;;;4846207;29;8804;-61
2021/09/12 05:05:10;;;;;;;;;52.50;44.25;21.90;42.10;;;;;;4846198;29;8831;-62
2021/09/12 05:07:36;;;;;;;;;49.25;42.25;22.00;42.10;;;;;;4846386;29;9481;-61
2021/09/12 05:10:02;;;;;;;;;52.75;45.50;21.90;42.00;;;;;;4845069;29;8840;-61
2021/09/12 05:12:28;;;;;;;;;57.75;49.00;21.90;42.20;;;;;;4846182;29;8800;-62
2021/09/12 05:14:55;;;;;;;;;53.75;45.75;21.90;42.30;;;;;;4836577;29;8928;-61
2021/09/12 05:17:21;;;;;;;;;56.75;48.75;21.80;42.30;;;;;;4835775;29;9489;-61
2021/09/12 05:19:47;;;;;;;;;57.00;48.25;21.80;42.50;;;;;;4836725;29;8803;-62
2021/09/12 05:22:13;;;;;;;;;52.00;44.75;21.90;42.60;;;;;;4827546;29;8802;-61
2021/09/12 05:24:39;;;;;;;;;57.00;47.75;21.90;42.50;;;;;;4827809;29;8798;-61
2021/09/12 05:27:05;;;;;;;;;55.25;47.50;22.00;42.30;;;;;;4828013;29;8845;-60
2021/09/12 05:29:31;;;;;;;;;52.50;43.50;22.00;42.20;;;;;;4829611;29;8803;-61
2021/09/12 05:31:57;;;;;;;;;63.25;52.75;22.00;42.40;;;;;;4837123;29;8909;-61
2021/09/12 05:34:23;;;;;;;;;56.75;47.75;22.00;42.40;;;;;;4833849;29;8811;-61
2021/09/12 05:36:48;;;;;;;;;59.75;50.50;22.10;42.40;;;;;;4839693;29;8999;-61
2021/09/12 05:39:14;;;;;;;;;57.75;48.75;22.20;42.40;;;;;;4829250;29;8909;-61
2021/09/12 05:41:40;;;;;;;;;56.00;47.25;22.10;42.40;;;;;;4829190;29;8807;-61
2021/09/12 05:44:06;;;;;;;;;54.25;46.25;22.10;42.50;;;;;;4835720;29;8843;-61
2021/09/12 05:46:34;;;;;;;;;56.75;47.75;22.20;42.30;;;;;;4829107;29;8819;-61
2021/09/12 05:49:00;;;;;;;;;56.25;46.25;22.20;42.50;;;;;;4832774;29;9517;-61
2021/09/12 05:51:25;;;;;;;;;44.50;39.50;22.20;42.40;;;;;;4836560;29;8828;-61
2021/09/12 05:53:51;;;;;;;;;48.50;42.00;22.20;42.40;;;;;;4845064;29;8976;-61
2021/09/12 05:56:17;;;;;;;;;55.25;46.50;22.10;42.60;;;;;;4845317;29;8864;-61
2021/09/12 05:58:43;;;;;;;;;55.00;47.00;22.00;43.10;;;;;;4834410;29;8825;-61
2021/09/12 06:01:09;;;;;;;;;53.50;45.75;21.90;43.30;;;;;;4833186;29;8925;-61
2021/09/12 06:03:35;;;;;;;;;49.75;43.00;21.90;43.80;;;;;;4835951;29;9513;-61
2021/09/12 06:06:01;;;;;;;;;52.50;44.75;21.90;43.90;;;;;;4828250;29;8856;-61
2021/09/12 06:08:27;;;;;;;;;50.50;43.50;21.90;44.10;;;;;;4826372;29;8802;-61
2021/09/12 06:10:52;;;;;;;;;50.00;42.25;21.90;44.20;;;;;;4825722;29;8839;-61
2021/09/12 06:13:18;;;;;;;;;49.75;43.00;22.00;44.10;;;;;;4826631;29;8850;-62
2021/09/12 06:15:44;;;;;;;;;49.25;42.25;22.00;44.20;;;;;;4826671;29;9408;-62
2021/09/12 06:18:10;;;;;;;;;39.00;36.25;22.00;44.30;;;;;;4826631;29;8802;-61
2021/09/12 06:20:36;;;;;;;;;50.00;43.00;22.10;44.40;;;;;;4826568;29;8945;-61
2021/09/12 06:23:02;;;;;;;;;46.00;40.25;22.20;44.30;;;;;;4826840;29;8803;-65
2021/09/12 06:25:28;;;;;;;;;47.00;39.33;22.40;44.00;;;;;;4826063;29;8806;-64
2021/09/12 06:27:54;;;;;;;;;41.67;37.00;22.50;43.50;;;;;;4829043;29;8830;-62
2021/09/12 06:30:19;;;;;;;;;39.00;36.33;22.40;43.30;;;;;;4837078;29;8912;-61
2021/09/12 06:32:46;;;;;;;;;34.33;33.33;22.50;43.30;;;;;;4835623;29;8987;-61
2021/09/12 06:35:14;;;;;;;;;40.33;37.33;22.40;43.10;;;;;;4832385;29;8792;-61
2021/09/12 06:37:39;;;;;;;;;40.67;37.00;22.50;43.10;;;;;;4835490;29;8935;-61
2021/09/12 06:40:06;;;;;;;;;34.00;33.00;22.60;42.90;;;;;;4837353;29;8922;-61
2021/09/12 06:42:32;;;;;;;;;36.67;34.33;22.70;42.80;;;;;;4835474;29;8829;-62
2021/09/12 06:44:58;;;;;;;;;40.33;36.33;22.90;42.50;;;;;;4833940;29;8820;-61
2021/09/12 06:47:24;;;;;;;;;37.33;34.67;22.90;42.30;;;;;;4829932;29;8798;-61
2021/09/12 06:49:50;;;;;;;;;34.00;32.67;23.00;42.10;;;;;;4828555;29;9423;-63
2021/09/12 06:52:16;;;;;;;;;34.67;33.67;23.00;41.80;;;;;;4827960;29;9472;-62
2021/09/12 06:54:42;;;;;;;;;38.00;36.00;23.10;41.80;;;;;;4825351;29;8806;-61
2021/09/12 06:57:08;;;;;;;;;36.33;34.00;23.20;41.60;;;;;;4826185;29;8807;-62
2021/09/12 06:59:34;;;;;;;;;41.00;37.33;23.20;41.50;;;;;;4825907;29;8818;-62
2021/09/12 07:02:00;;;;;;;;;34.67;33.67;23.40;41.30;;;;;;4825852;29;8821;-62
2021/09/12 07:04:26;;;;;;;;;39.33;36.00;23.40;40.90;;;;;;4825863;29;8823;-62
2021/09/12 07:06:51;;;;;;;;;32.67;32.33;23.50;40.90;;;;;;4826014;29;8833;-62
2021/09/12 07:09:17;;;;;;;;;32.67;31.67;23.60;40.60;;;;;;4825514;29;8799;-63
2021/09/12 07:11:43;;;;;;;;;33.33;32.33;23.70;40.30;;;;;;4825706;29;8830;-62
2021/09/12 07:14:09;;;;;;;;;36.33;33.33;23.80;40.30;;;;;;4825782;29;8866;-62
2021/09/12 07:16:35;;;;;;;;;31.33;31.33;23.80;40.20;;;;;;4826065;29;8815;-61
2021/09/12 07:19:06;;;;;;;;;31.00;31.00;23.70;39.90;;;;;;4826027;29;8888;-62
2021/09/12 07:21:32;;;;;;;;;38.33;35.33;23.70;39.90;;;;;;4825719;29;8933;-61
2021/09/12 07:23:58;;;;;;;;;34.00;32.67;23.90;39.80;;;;;;4825279;29;8835;-61
2021/09/12 07:26:24;;;;;;;;;33.00;32.00;23.90;39.70;;;;;;4826191;29;8814;-61
2021/09/12 07:28:49;;;;;;;;;34.33;33.33;24.00;39.60;;;;;;4829686;29;9455;-61
2021/09/12 07:31:15;;;;;;;;;32.00;31.33;24.10;39.30;;;;;;4834370;29;8832;-61
2021/09/12 07:33:41;;;;;;;;;26.67;26.67;24.20;39.10;;;;;;4833864;29;8818;-61
2021/09/12 07:36:07;;;;;;;;;32.33;31.33;24.30;38.70;;;;;;4830266;29;8827;-61
2021/09/12 07:38:33;;;;;;;;;32.00;31.33;24.40;38.90;;;;;;4833360;29;8819;-61
2021/09/12 07:40:59;;;;;;;;;33.00;32.00;24.60;38.50;;;;;;4826898;29;8824;-61
2021/09/12 07:43:25;;;;;;;;;36.67;34.33;24.70;38.10;;;;;;4830740;29;8950;-61
2021/09/12 07:45:51;;;;;;;;;34.00;33.00;24.70;37.90;;;;;;4831128;29;8908;-61
2021/09/12 07:48:17;;;;;;;;;33.33;32.33;24.80;38.00;;;;;;4835671;29;9474;-62
2021/09/12 07:50:43;;;;;;;;;30.33;30.33;24.90;37.90;;;;;;4825294;29;8827;-62
2021/09/12 07:53:09;;;;;;;;;34.33;33.00;25.00;37.30;;;;;;4835414;29;8831;-62
2021/09/12 07:55:35;;;;;;;;;26.67;26.67;25.00;37.30;;;;;;4837670;29;8800;-62
2021/09/12 07:58:01;;;;;;;;;35.67;34.00;25.10;36.50;;;;;;4827585;29;8821;-62
2021/09/12 08:00:27;;;;;;;;;29.67;29.67;25.10;36.60;;;;;;4825229;29;8815;-69
2021/09/12 08:02:53;;;;;;;;;29.67;29.67;25.20;36.40;;;;;;4825455;29;8798;-68
2021/09/12 08:05:18;;;;;;;;;30.00;30.00;25.20;35.60;;;;;;4825520;29;9470;-71
2021/09/12 08:07:44;;;;;;;;;29.00;29.00;25.30;36.10;;;;;;4824997;29;8798;-71
2021/09/12 08:10:10;;;;;;;;;31.67;31.33;25.40;36.10;;;;;;4825134;29;8968;-67
2021/09/12 08:12:36;;;;;;;;;31.00;31.00;25.50;35.90;;;;;;4825293;29;8826;-67
2021/09/12 08:15:03;;;;;;;;;27.67;27.67;25.60;36.00;;;;;;4829637;29;9517;-63
2021/09/12 08:17:29;;;;;;;;;27.67;27.67;25.70;35.40;;;;;;4826174;29;8853;-63
2021/09/12 08:19:55;;;;;;;;;27.00;27.00;25.60;34.70;;;;;;4833223;29;8812;-63
2021/09/12 08:22:21;;;;;;;;;33.33;32.33;25.80;34.90;;;;;;4831915;29;10063;-61
2021/09/12 08:24:46;;;;;;;;;29.67;29.67;25.80;34.60;;;;;;4828887;29;8830;-61
2021/09/12 08:27:12;;;;;;;;;28.33;28.33;25.90;34.70;;;;;;4835312;29;8930;-61
2021/09/12 08:29:38;;;;;;;;;28.67;28.67;26.00;34.40;;;;;;4833741;29;8838;-62
2021/09/12 08:32:04;;;;;;;;;28.33;28.33;26.00;34.10;;;;;;4825161;29;8795;-62
2021/09/12 08:34:30;;;;;;;;;29.33;29.33;26.10;34.10;;;;;;4827907;29;8822;-62
2021/09/12 08:36:56;;;;;;;;;27.33;27.33;26.20;34.30;;;;;;4828093;29;8815;-62
2021/09/12 08:39:23;;;;;;;;;25.33;25.33;26.20;33.20;;;;;;4834731;29;8937;-63
2021/09/12 08:41:49;;;;;;;;;26.67;26.67;26.30;33.10;;;;;;4836154;29;9563;-64
2021/09/12 08:44:19;;;;;;;;;29.33;29.33;26.40;33.10;;;;;;4846429;29;8836;-64
2021/09/12 08:46:46;;;;;;;;;27.67;27.67;26.50;33.20;;;;;;4846327;29;8808;-64
2021/09/12 08:49:13;;;;;;;;;28.00;28.00;26.60;33.00;;;;;;4845451;29;8839;-64
2021/09/12 08:51:39;;;;;;;;;31.00;30.33;26.60;32.30;;;;;;4846457;29;8844;-64
2021/09/12 08:54:04;;;;;;;;;29.33;29.33;26.80;32.50;;;;;;4845920;29;8824;-64
2021/09/12 08:56:30;;;;;;;;;27.67;27.67;26.80;32.10;;;;;;4846438;29;9455;-63
2021/09/12 08:58:56;;;;;;;;;31.67;30.33;26.90;31.80;;;;;;4846481;29;8910;-65
2021/09/12 09:01:36;;;;;;;;;28.67;28.67;27.00;32.20;;;;;;4845245;29;8935;-64
2021/09/12 09:04:03;;;;;;;;;25.33;25.33;27.10;31.50;;;;;;4845144;29;8812;-64
2021/09/12 09:06:37;;;;;;;;;24.33;24.33;27.20;31.80;;;;;;4844987;29;8800;-64
2021/09/12 09:09:04;;;;;;;;;33.00;31.67;27.30;30.00;;;;;;4842318;29;8931;-64
2021/09/12 09:11:33;;;;;;;;;24.33;24.33;27.40;30.20;;;;;;4844517;29;8832;-65
2021/09/12 09:14:19;;;;;;;;;6.67;5.33;27.50;29.70;;;;;;4845224;29;8879;-65
2021/09/12 09:16:47;;;;;;;;;23.00;23.00;27.50;29.90;;;;;;4845904;29;8800;-76
2021/09/12 09:19:13;;;;;;;;;25.33;25.33;27.60;29.40;;;;;;4833750;29;9455;-65
2021/09/12 09:21:41;;;;;;;;;19.33;19.33;27.60;29.50;;;;;;4845039;29;8812;-64
2021/09/12 09:24:22;;;;;;;;;26.33;26.33;27.70;28.70;;;;;;4842964;29;9364;-64
2021/09/12 09:26:49;;;;;;;;;22.00;22.00;27.80;28.50;;;;;;4844435;29;8800;-64
2021/09/12 09:29:20;;;;;;;;;24.00;24.00;27.90;28.80;;;;;;4845119;29;8995;-63
2021/09/12 09:31:46;;;;;;;;;22.33;22.33;28.00;28.20;;;;;;4845182;29;8868;-64
2021/09/12 09:34:17;;;;;;;;;21.00;21.00;28.10;27.80;;;;;;4842558;29;8800;-66
2021/09/12 09:36:44;;;;;;;;;23.00;23.00;28.30;27.70;;;;;;4843051;29;8911;-67
2021/09/12 09:39:10;;;;;;;;;17.33;17.33;28.40;27.60;;;;;;4845612;29;8800;-66
2021/09/12 09:41:39;;;;;;;;;24.67;24.67;28.50;28.90;;;;;;4844915;29;8826;-68
2021/09/12 09:44:12;;;;;;;;;24.00;24.00;28.60;27.30;;;;;;4845339;29;8836;-66
2021/09/12 09:46:40;;;;;;;;;27.33;27.33;28.70;27.40;;;;;;4843865;29;8792;-67
2021/09/12 09:49:21;;;;;;;;;20.33;20.33;28.90;27.50;;;;;;4858305;29;8897;-65
2021/09/12 09:51:56;;;;;;;;;22.00;22.00;29.00;27.00;;;;;;4845219;29;9719;-69
2021/09/12 09:54:25;;;;;;;;;20.33;20.33;29.20;26.30;;;;;;4844457;29;12294;-69
2021/09/12 09:56:52;;;;;;;;;24.67;24.67;29.40;26.20;;;;;;4848159;29;8964;-70
2021/09/12 09:59:20;;;;;;;;;19.67;19.67;29.50;26.20;;;;;;4842021;29;8808;-64
2021/09/12 10:01:50;;;;;;;;;22.67;22.67;29.70;26.30;;;;;;4842824;29;8811;-66
2021/09/12 10:04:20;;;;;;;;;18.67;18.67;29.90;26.60;;;;;;4839690;29;8837;-66
2021/09/12 10:06:47;;;;;;;;;22.67;22.67;30.20;26.20;;;;;;4844523;29;11650;-66
2021/09/12 10:09:15;;;;;;;;;21.33;21.33;30.30;25.70;;;;;;4838483;29;11638;-68
2021/09/12 10:11:53;;;;;;;;;20.00;20.00;30.50;25.40;;;;;;4842187;29;11677;-66
2021/09/12 10:14:25;;;;;;;;;19.33;19.33;30.70;25.60;;;;;;4838967;29;11833;-69
2021/09/12 10:16:52;;;;;;;;;19.00;19.00;30.90;25.50;;;;;;4837973;29;11632;-66
2021/09/12 10:19:40;;;;;;;;;20.33;20.33;31.00;24.50;;;;;;4843031;29;11706;-68
2021/09/12 10:22:13;;;;;;;;;22.33;22.33;31.20;24.20;;;;;;4835112;29;11696;-67
2021/09/12 10:25:00;;;;;;;;;15.00;14.75;31.50;24.50;;;;;;4842551;29;11658;-70
2021/09/12 10:27:42;;;;;;;;;18.33;18.33;31.60;24.40;;;;;;4842771;29;11781;-66
2021/09/12 10:30:29;;;;;;;;;21.00;21.00;31.80;24.50;;;;;;4844147;29;11689;-66
2021/09/12 10:33:08;;;;;;;;;19.67;19.67;32.00;24.30;;;;;;4843908;29;11737;-66
2021/09/12 10:35:59;;;;;;;;;18.00;18.00;32.20;24.20;;;;;;4840172;29;11777;-63
2021/09/12 10:38:24;;;;;;;;;20.33;20.33;32.40;24.40;;;;;;4853217;29;11699;-62
2021/09/12 10:40:50;;;;;;;;;22.00;22.00;32.60;24.50;;;;;;4841881;29;11616;-63
2021/09/12 10:43:27;;;;;;;;;21.00;21.00;32.70;23.70;;;;;;4844464;29;8847;-64
2021/09/12 10:46:04;;;;;;;;;18.00;18.00;32.80;22.90;;;;;;4833379;29;8823;-64
2021/09/12 10:48:44;;;;;;;;;21.33;21.33;33.00;23.30;;;;;;4833290;29;11647;-64
2021/09/12 10:51:10;;;;;;;;;19.67;19.67;33.20;23.30;;;;;;4829224;29;11794;-62
2021/09/12 10:53:45;;;;;;;;;23.67;23.67;33.30;23.40;;;;;;4825920;29;11663;-62
2021/09/12 10:56:17;;;;;;;;;22.67;22.67;33.50;23.80;;;;;;4839332;29;8792;-71
2021/09/12 10:58:44;;;;;;;;;20.33;20.33;33.50;23.80;;;;;;4843552;29;11653;-67
2021/09/12 11:01:13;;;;;;;;;19.00;19.00;33.60;22.80;;;;;;4843456;29;11628;-66
2021/09/12 11:03:45;;;;;;;;;20.00;20.00;33.80;21.90;;;;;;4841285;29;11696;-62
2021/09/12 11:06:15;;;;;;;;;22.33;22.33;34.00;22.80;;;;;;4844273;29;12374;-63
2021/09/12 11:08:42;;;;;;;;;22.33;21.67;34.30;22.80;;;;;;4843869;29;11660;-68
2021/09/12 11:11:09;;;;;;;;;20.33;20.33;34.50;22.20;;;;;;4844071;29;11665;-66
2021/09/12 11:13:36;;;;;;;;;20.33;20.33;34.70;22.20;;;;;;4842934;29;12330;-65
2021/09/12 11:16:19;;;;;;;;;23.00;23.00;34.80;21.90;;;;;;4843837;29;11650;-67
2021/09/12 11:18:54;;;;;;;;;20.33;20.33;35.00;21.60;;;;;;4843415;29;11645;-65
2021/09/12 11:21:42;;;;;;;;;22.00;22.00;35.30;21.30;;;;;;4843657;29;12554;-64
2021/09/12 11:24:09;;;;;;;;;19.33;19.33;35.50;21.60;;;;;;4844000;29;11642;-67
2021/09/12 11:26:46;;;;;;;;;16.75;16.75;35.60;20.80;;;;;;4843989;29;11638;-65
2021/09/12 11:29:15;;;;;;;;;16.75;16.75;35.50;19.70;;;;;;4843697;29;11683;-67
2021/09/12 11:31:43;;;;;;;;;19.00;18.50;35.30;20.00;;;;;;4841752;29;11704;-67
2021/09/12 11:34:10;;;;;;;;;18.75;18.75;35.40;20.20;;;;;;4842123;29;11604;-68
2021/09/12 11:36:46;;;;;;;;;16.25;16.25;35.70;20.40;;;;;;4842245;29;11639;-68
2021/09/12 11:39:19;;;;;;;;;16.25;16.25;35.70;19.90;;;;;;4842219;29;11642;-64
2021/09/12 11:41:45;;;;;;;;;23.00;23.00;36.10;20.10;;;;;;4842276;29;11656;-68
2021/09/12 11:44:11;;;;;;;;;23.33;23.33;36.30;20.40;;;;;;4842263;29;11670;-70
2021/09/12 11:46:45;;;;;;;;;19.75;19.75;36.60;20.00;;;;;;4842570;29;8819;-66
2021/09/12 11:49:11;;;;;;;;;16.00;16.00;36.80;19.60;;;;;;4842728;29;11755;-67
2021/09/12 11:51:40;;;;;;;;;21.00;21.00;36.90;19.10;;;;;;4842899;29;12322;-67
2021/09/12 11:54:11;;;;;;;;;16.00;16.00;37.10;18.60;;;;;;4843563;29;11614;-66
2021/09/12 11:56:39;;;;;;;;;15.00;15.00;37.20;18.90;;;;;;4843322;29;11622;-67
2021/09/12 11:59:07;;;;;;;;;16.25;16.25;37.30;18.10;;;;;;4843243;29;11635;-68
2021/09/12 12:01:35;;;;;;;;;13.00;13.00;37.40;18.60;;;;;;4843446;29;11636;-67
2021/09/12 12:04:05;;;;;;;;;14.00;14.00;37.50;18.30;;;;;;4843242;29;11664;-66
2021/09/12 12:06:32;;;;;;;;;15.00;15.00;37.70;18.30;;;;;;4843560;29;11627;-67
2021/09/12 12:09:12;;;;;;;;;15.25;15.25;37.90;17.10;;;;;;4845705;29;11651;-68
2021/09/12 12:11:41;;;;;;;;;11.75;11.75;38.20;17.70;;;;;;4847098;29;11658;-70
2021/09/12 12:14:16;;;;;;;;;12.50;12.50;38.40;17.30;;;;;;4846844;29;11691;-69
2021/09/12 12:16:42;;;;;;;;;13.75;13.75;38.90;16.40;;;;;;4847039;29;11641;-71
2021/09/12 12:19:13;;;;;;;;;13.50;13.50;41.00;15.50;;;;;;4847137;29;11705;-71
2021/09/12 12:21:41;;;;;;;;;12.00;12.00;43.50;14.60;;;;;;4846969;29;8843;-77
2021/09/12 12:24:19;;;;;;;;;10.00;10.00;46.30;13.10;;;;;;4846738;29;11639;-69
2021/09/12 12:26:54;;;;;;;;;9.75;9.75;48.70;12.20;;;;;;4846872;29;11614;-68
2021/09/12 12:29:28;;;;;;;;;11.00;11.00;51.10;10.90;;;;;;4846715;29;11583;-66
2021/09/12 12:31:55;;;;;;;;;10.50;10.50;53.40;10.20;;;;;;4846650;29;11676;-69
2021/09/12 12:34:46;;;;;;;;;12.25;12.25;55.20;9.50;;;;;;4846904;29;11632;-67
2021/09/12 12:37:16;;;;;;;;;11.50;11.50;56.60;8.90;;;;;;4846625;29;11638;-69